sensor_id;sensor_type;location;lat;lon;timestamp;pressure;altitude;pressure_sealevel;temperature;humidity
8627;BME280;4351;51.422;6.794;2023-04-28T00:00:00;101264.66;;;10.36;100.00
8627;BME280;4351;51.422;6.794;2023-04-28T00:02:30;101259.72;;;10.44;100.00
8627;BME280;4351;51.422;6.794;2023-04-28T00:04:58;101253.25;;;10.31;100.00
8627;BME280;4351;51.422;6.794;2023-04-28T00:07:28;101242.13;;;10.37;100.00
8627;BME280;4351;51.422;6.794;2023-04-28T00:09:55;101236.41;;;10.26;100.00
8627;BME280;4351;51.422;6.794;2023-04-28T00:12:23;101236.66;;;10.21;100.00
8627;BME280;4351;51.422;6.794;2023-04-28T00:14:51;101223.09;;;10.22;100.00
8627;BME280;4351;51.422;6.794;2023-04-28T00:17:19;101226.75;;;10.21;100.00
8627;BME280;4351;51.422;6.794;2023-04-28T00:19:47;101235.47;;;10.09;100.00
8627;BME280;4351;51.422;6.794;2023-04-28T00:22:15;101224.69;;;10.09;100.00
8627;BME280;4351;51.422;6.794;2023-04-28T00:24:44;101216.97;;;10.19;100.00
8627;BME280;4351;51.422;6.794;2023-04-28T00:27:12;101217.06;;;10.17;100.00
8627;BME280;4351;51.422;6.794;2023-04-28T00:29:40;101210.88;;;10.15;100.00
8627;BME280;4351;51.422;6.794;2023-04-28T00:32:08;101210.09;;;10.13;100.00
8627;BME280;4351;51.422;6.794;2023-04-28T00:34:36;101200.25;;;10.12;100.00
8627;BME280;4351;51.422;6.794;2023-04-28T00:37:04;101194.94;;;10.10;100.00
8627;BME280;4351;51.422;6.794;2023-04-28T00:39:32;101201.91;;;9.97;100.00
8627;BME280;4351;51.422;6.794;2023-04-28T00:42:01;101196.84;;;9.91;100.00
8627;BME280;4351;51.422;6.794;2023-04-28T00:44:30;101189.41;;;9.96;100.00
8627;BME280;4351;51.422;6.794;2023-04-28T00:46:58;101201.56;;;9.85;100.00
8627;BME280;4351;51.422;6.794;2023-04-28T00:49:26;101190.22;;;9.78;100.00
8627;BME280;4351;51.422;6.794;2023-04-28T00:51:54;101205.59;;;9.76;100.00
8627;BME280;4351;51.422;6.794;2023-04-28T00:54:22;101202.09;;;9.74;100.00
8627;BME280;4351;51.422;6.794;2023-04-28T00:56:50;101198.13;;;9.64;100.00
8627;BME280;4351;51.422;6.794;2023-04-28T00:59:19;101192.56;;;9.49;100.00
8627;BME280;4351;51.422;6.794;2023-04-28T01:01:47;101194.06;;;9.55;100.00
8627;BME280;4351;51.422;6.794;2023-04-28T01:04:16;101203.56;;;9.45;100.00
8627;BME280;4351;51.422;6.794;2023-04-28T01:06:48;101193.44;;;9.30;100.00
8627;BME280;4351;51.422;6.794;2023-04-28T01:09:17;101189.38;;;9.41;100.00
8627;BME280;4351;51.422;6.794;2023-04-28T01:11:45;101189.13;;;9.46;100.00
8627;BME280;4351;51.422;6.794;2023-04-28T01:14:30;101210.63;;;9.47;100.00
8627;BME280;4351;51.422;6.794;2023-04-28T01:16:59;101211.84;;;9.40;100.00
8627;BME280;4351;51.422;6.794;2023-04-28T01:19:27;101211.06;;;9.38;100.00
8627;BME280;4351;51.422;6.794;2023-04-28T01:21:55;101222.25;;;9.28;100.00
8627;BME280;4351;51.422;6.794;2023-04-28T01:24:25;101226.22;;;9.21;100.00
8627;BME280;4351;51.422;6.794;2023-04-28T01:26:57;101229.81;;;9.20;100.00
8627;BME280;4351;51.422;6.794;2023-04-28T01:29:26;101241.56;;;9.19;100.00
8627;BME280;4351;51.422;6.794;2023-04-28T01:31:54;101238.88;;;9.19;100.00
8627;BME280;4351;51.422;6.794;2023-04-28T01:34:22;101240.69;;;9.18;100.00
8627;BME280;4351;51.422;6.794;2023-04-28T01:36:50;101249.69;;;9.17;100.00
8627;BME280;4351;51.422;6.794;2023-04-28T01:39:18;101257.94;;;9.14;100.00
8627;BME280;4351;51.422;6.794;2023-04-28T01:41:47;101270.72;;;9.09;100.00
8627;BME280;4351;51.422;6.794;2023-04-28T01:44:14;101284.84;;;9.14;100.00
8627;BME280;4351;51.422;6.794;2023-04-28T01:46:43;101291.09;;;9.15;100.00
8627;BME280;4351;51.422;6.794;2023-04-28T01:49:11;101301.59;;;9.21;100.00
8627;BME280;4351;51.422;6.794;2023-04-28T01:51:39;101306.22;;;9.17;100.00
8627;BME280;4351;51.422;6.794;2023-04-28T01:54:08;101326.75;;;9.20;100.00
8627;BME280;4351;51.422;6.794;2023-04-28T01:56:36;101341.75;;;9.26;100.00
8627;BME280;4351;51.422;6.794;2023-04-28T01:59:06;101365.13;;;9.25;100.00
8627;BME280;4351;51.422;6.794;2023-04-28T02:01:34;101392.69;;;9.30;100.00
8627;BME280;4351;51.422;6.794;2023-04-28T02:04:02;101399.31;;;9.23;100.00
8627;BME280;4351;51.422;6.794;2023-04-28T02:06:32;101431.63;;;9.23;100.00
8627;BME280;4351;51.422;6.794;2023-04-28T02:09:00;101455.03;;;9.21;100.00
8627;BME280;4351;51.422;6.794;2023-04-28T02:11:28;101478.13;;;9.06;100.00
8627;BME280;4351;51.422;6.794;2023-04-28T02:13:56;101504.69;;;9.14;100.00
8627;BME280;4351;51.422;6.794;2023-04-28T02:16:25;101534.50;;;9.09;100.00
8627;BME280;4351;51.422;6.794;2023-04-28T02:18:53;101545.41;;;9.06;100.00
8627;BME280;4351;51.422;6.794;2023-04-28T02:21:21;101573.44;;;9.00;100.00
8627;BME280;4351;51.422;6.794;2023-04-28T02:23:49;101602.97;;;9.02;100.00
8627;BME280;4351;51.422;6.794;2023-04-28T02:26:16;101622.69;;;9.02;100.00
8627;BME280;4351;51.422;6.794;2023-04-28T02:28:44;101632.22;;;9.11;100.00
8627;BME280;4351;51.422;6.794;2023-04-28T02:31:12;101662.47;;;9.18;100.00
8627;BME280;4351;51.422;6.794;2023-04-28T02:33:41;101680.25;;;9.22;100.00
8627;BME280;4351;51.422;6.794;2023-04-28T02:36:09;101699.91;;;9.24;100.00
8627;BME280;4351;51.422;6.794;2023-04-28T02:38:38;101716.25;;;9.19;100.00
8627;BME280;4351;51.422;6.794;2023-04-28T02:41:07;101722.41;;;9.23;100.00
8627;BME280;4351;51.422;6.794;2023-04-28T02:43:36;101726.84;;;9.24;100.00
8627;BME280;4351;51.422;6.794;2023-04-28T02:46:04;101700.72;;;9.26;100.00
8627;BME280;4351;51.422;6.794;2023-04-28T02:51:08;101675.44;;;9.30;100.00
8627;BME280;4351;51.422;6.794;2023-04-28T02:53:36;101670.81;;;9.34;100.00
8627;BME280;4351;51.422;6.794;2023-04-28T02:56:04;101659.03;;;9.37;100.00
8627;BME280;4351;51.422;6.794;2023-04-28T02:58:32;101655.47;;;9.36;100.00
8627;BME280;4351;51.422;6.794;2023-04-28T03:01:00;101642.88;;;9.37;100.00
8627;BME280;4351;51.422;6.794;2023-04-28T03:03:28;101623.16;;;9.36;100.00
8627;BME280;4351;51.422;6.794;2023-04-28T03:05:56;101616.97;;;9.34;100.00
8627;BME280;4351;51.422;6.794;2023-04-28T03:08:25;101592.09;;;9.27;100.00
8627;BME280;4351;51.422;6.794;2023-04-28T03:10:54;101574.97;;;9.28;100.00
8627;BME280;4351;51.422;6.794;2023-04-28T03:13:22;101560.78;;;9.25;100.00
8627;BME280;4351;51.422;6.794;2023-04-28T03:15:50;101557.03;;;9.29;100.00
8627;BME280;4351;51.422;6.794;2023-04-28T03:18:18;101548.00;;;9.30;100.00
8627;BME280;4351;51.422;6.794;2023-04-28T03:20:47;101537.44;;;9.25;100.00
8627;BME280;4351;51.422;6.794;2023-04-28T03:23:15;101537.34;;;9.27;100.00
8627;BME280;4351;51.422;6.794;2023-04-28T03:25:45;101520.41;;;9.25;100.00
8627;BME280;4351;51.422;6.794;2023-04-28T03:28:13;101522.34;;;9.21;100.00
8627;BME280;4351;51.422;6.794;2023-04-28T03:30:41;101500.34;;;9.32;100.00
8627;BME280;4351;51.422;6.794;2023-04-28T03:33:09;101511.25;;;9.29;100.00
8627;BME280;4351;51.422;6.794;2023-04-28T03:35:37;101517.97;;;9.39;100.00
8627;BME280;4351;51.422;6.794;2023-04-28T03:38:05;101502.56;;;9.43;100.00
8627;BME280;4351;51.422;6.794;2023-04-28T03:40:34;101491.66;;;9.46;100.00
8627;BME280;4351;51.422;6.794;2023-04-28T03:43:13;101487.22;;;9.45;100.00
8627;BME280;4351;51.422;6.794;2023-04-28T03:46:13;101473.81;;;9.43;100.00
8627;BME280;4351;51.422;6.794;2023-04-28T03:48:44;101473.81;;;9.43;100.00
8627;BME280;4351;51.422;6.794;2023-04-28T03:51:12;101487.88;;;9.50;100.00
8627;BME280;4351;51.422;6.794;2023-04-28T03:53:40;101487.06;;;9.48;100.00
8627;BME280;4351;51.422;6.794;2023-04-28T03:56:08;101487.03;;;9.50;100.00
8627;BME280;4351;51.422;6.794;2023-04-28T03:58:39;101485.06;;;9.53;100.00
8627;BME280;4351;51.422;6.794;2023-04-28T04:01:07;101488.47;;;9.57;100.00
8627;BME280;4351;51.422;6.794;2023-04-28T04:03:34;101486.34;;;9.45;100.00
8627;BME280;4351;51.422;6.794;2023-04-28T04:06:03;101477.38;;;9.44;100.00
8627;BME280;4351;51.422;6.794;2023-04-28T04:08:31;101466.41;;;9.49;100.00
8627;BME280;4351;51.422;6.794;2023-04-28T04:10:59;101476.91;;;9.55;100.00
8627;BME280;4351;51.422;6.794;2023-04-28T04:13:27;101495.84;;;9.53;100.00
8627;BME280;4351;51.422;6.794;2023-04-28T04:15:56;101510.84;;;9.59;100.00
8627;BME280;4351;51.422;6.794;2023-04-28T04:18:26;101519.22;;;9.74;100.00
8627;BME280;4351;51.422;6.794;2023-04-28T04:21:12;101517.25;;;9.77;100.00
8627;BME280;4351;51.422;6.794;2023-04-28T04:23:40;101512.53;;;9.83;100.00
8627;BME280;4351;51.422;6.794;2023-04-28T04:26:08;101519.66;;;9.84;100.00
8627;BME280;4351;51.422;6.794;2023-04-28T04:28:36;101515.06;;;9.86;100.00
8627;BME280;4351;51.422;6.794;2023-04-28T04:31:07;101497.22;;;9.83;100.00
8627;BME280;4351;51.422;6.794;2023-04-28T04:33:35;101507.72;;;9.89;100.00
8627;BME280;4351;51.422;6.794;2023-04-28T04:36:05;101510.34;;;9.91;100.00
8627;BME280;4351;51.422;6.794;2023-04-28T04:38:34;101500.09;;;9.99;100.00
8627;BME280;4351;51.422;6.794;2023-04-28T04:41:11;101500.75;;;10.05;100.00
8627;BME280;4351;51.422;6.794;2023-04-28T04:43:39;101496.44;;;10.00;100.00
8627;BME280;4351;51.422;6.794;2023-04-28T04:46:08;101501.31;;;10.11;100.00
8627;BME280;4351;51.422;6.794;2023-04-28T04:48:36;101482.41;;;10.13;100.00
8627;BME280;4351;51.422;6.794;2023-04-28T04:51:04;101478.03;;;10.10;100.00
8627;BME280;4351;51.422;6.794;2023-04-28T04:53:32;101457.47;;;10.08;100.00
8627;BME280;4351;51.422;6.794;2023-04-28T04:56:00;101446.84;;;10.05;100.00
8627;BME280;4351;51.422;6.794;2023-04-28T04:58:30;101434.09;;;9.89;100.00
8627;BME280;4351;51.422;6.794;2023-04-28T05:01:27;101431.69;;;10.02;100.00
8627;BME280;4351;51.422;6.794;2023-04-28T05:03:56;101415.06;;;9.92;100.00
8627;BME280;4351;51.422;6.794;2023-04-28T05:06:24;101429.34;;;9.94;100.00
8627;BME280;4351;51.422;6.794;2023-04-28T05:08:53;101433.28;;;9.87;100.00
8627;BME280;4351;51.422;6.794;2023-04-28T05:11:22;101423.34;;;9.87;100.00
8627;BME280;4351;51.422;6.794;2023-04-28T05:13:51;101425.19;;;9.87;100.00
8627;BME280;4351;51.422;6.794;2023-04-28T05:16:18;101395.97;;;9.97;100.00
8627;BME280;4351;51.422;6.794;2023-04-28T05:19:05;101401.78;;;9.87;100.00
8627;BME280;4351;51.422;6.794;2023-04-28T05:21:33;101383.47;;;9.96;100.00
8627;BME280;4351;51.422;6.794;2023-04-28T05:24:01;101374.84;;;10.07;100.00
8627;BME280;4351;51.422;6.794;2023-04-28T05:26:29;101354.66;;;9.96;100.00
8627;BME280;4351;51.422;6.794;2023-04-28T05:29:03;101364.56;;;10.15;100.00
8627;BME280;4351;51.422;6.794;2023-04-28T05:31:31;101369.97;;;10.15;100.00
8627;BME280;4351;51.422;6.794;2023-04-28T05:33:59;101375.97;;;10.20;100.00
8627;BME280;4351;51.422;6.794;2023-04-28T05:36:29;101367.09;;;10.18;100.00
8627;BME280;4351;51.422;6.794;2023-04-28T05:38:57;101346.41;;;10.19;100.00
8627;BME280;4351;51.422;6.794;2023-04-28T05:41:26;101326.44;;;10.23;100.00
8627;BME280;4351;51.422;6.794;2023-04-28T05:43:54;101313.97;;;10.20;100.00
8627;BME280;4351;51.422;6.794;2023-04-28T05:46:22;101356.97;;;10.23;100.00
8627;BME280;4351;51.422;6.794;2023-04-28T05:48:58;101297.34;;;10.30;100.00
8627;BME280;4351;51.422;6.794;2023-04-28T05:51:32;101275.38;;;10.38;100.00
8627;BME280;4351;51.422;6.794;2023-04-28T05:54:01;101242.19;;;10.35;100.00
8627;BME280;4351;51.422;6.794;2023-04-28T05:56:30;101231.03;;;10.43;100.00
8627;BME280;4351;51.422;6.794;2023-04-28T05:58:59;101182.63;;;10.40;100.00
8627;BME280;4351;51.422;6.794;2023-04-28T06:01:29;101138.06;;;10.51;100.00
8627;BME280;4351;51.422;6.794;2023-04-28T06:03:58;101121.06;;;10.49;100.00
8627;BME280;4351;51.422;6.794;2023-04-28T06:06:26;101108.31;;;10.52;100.00
8627;BME280;4351;51.422;6.794;2023-04-28T06:08:56;101092.81;;;10.56;100.00
8627;BME280;4351;51.422;6.794;2023-04-28T06:11:24;101064.91;;;10.57;100.00
8627;BME280;4351;51.422;6.794;2023-04-28T06:13:53;101045.75;;;10.62;100.00
8627;BME280;4351;51.422;6.794;2023-04-28T06:16:21;101055.06;;;10.56;100.00
8627;BME280;4351;51.422;6.794;2023-04-28T06:18:50;101059.16;;;10.63;100.00
8627;BME280;4351;51.422;6.794;2023-04-28T06:21:19;101067.25;;;10.63;100.00
8627;BME280;4351;51.422;6.794;2023-04-28T06:23:47;101101.81;;;10.73;100.00
8627;BME280;4351;51.422;6.794;2023-04-28T06:26:17;101125.50;;;10.84;100.00
8627;BME280;4351;51.422;6.794;2023-04-28T06:28:45;101118.53;;;10.79;100.00
8627;BME280;4351;51.422;6.794;2023-04-28T06:31:13;101131.16;;;10.79;100.00
8627;BME280;4351;51.422;6.794;2023-04-28T06:33:41;101118.53;;;10.96;100.00
8627;BME280;4351;51.422;6.794;2023-04-28T06:36:09;101129.34;;;10.96;100.00
8627;BME280;4351;51.422;6.794;2023-04-28T06:38:39;101124.72;;;10.98;100.00
8627;BME280;4351;51.422;6.794;2023-04-28T06:41:08;101140.22;;;11.10;100.00
8627;BME280;4351;51.422;6.794;2023-04-28T06:43:39;101131.28;;;11.10;100.00
8627;BME280;4351;51.422;6.794;2023-04-28T06:46:11;101114.56;;;11.03;100.00
8627;BME280;4351;51.422;6.794;2023-04-28T06:48:41;101100.06;;;11.04;100.00
8627;BME280;4351;51.422;6.794;2023-04-28T06:51:09;101082.31;;;11.00;100.00
8627;BME280;4351;51.422;6.794;2023-04-28T06:53:37;101075.34;;;11.12;100.00
8627;BME280;4351;51.422;6.794;2023-04-28T06:56:06;101068.44;;;11.38;100.00
8627;BME280;4351;51.422;6.794;2023-04-28T06:58:38;101048.13;;;11.31;100.00
8627;BME280;4351;51.422;6.794;2023-04-28T07:01:07;101043.28;;;11.53;100.00
8627;BME280;4351;51.422;6.794;2023-04-28T07:03:34;101015.81;;;11.60;100.00
8627;BME280;4351;51.422;6.794;2023-04-28T07:06:03;100993.63;;;11.70;100.00
8627;BME280;4351;51.422;6.794;2023-04-28T07:08:32;100977.41;;;11.70;100.00
8627;BME280;4351;51.422;6.794;2023-04-28T07:11:00;100971.72;;;11.75;100.00
8627;BME280;4351;51.422;6.794;2023-04-28T07:13:30;100972.69;;;11.88;100.00
8627;BME280;4351;51.422;6.794;2023-04-28T07:15:59;100956.97;;;11.95;100.00
8627;BME280;4351;51.422;6.794;2023-04-28T07:18:27;100919.78;;;11.84;100.00
8627;BME280;4351;51.422;6.794;2023-04-28T07:20:55;100896.31;;;11.99;100.00
8627;BME280;4351;51.422;6.794;2023-04-28T07:23:23;100858.56;;;12.12;100.00
8627;BME280;4351;51.422;6.794;2023-04-28T07:25:51;100807.66;;;12.19;100.00
8627;BME280;4351;51.422;6.794;2023-04-28T07:28:19;100759.84;;;12.20;100.00
8627;BME280;4351;51.422;6.794;2023-04-28T07:30:47;100705.69;;;12.06;100.00
8627;BME280;4351;51.422;6.794;2023-04-28T07:33:17;100643.56;;;12.20;100.00
8627;BME280;4351;51.422;6.794;2023-04-28T07:35:45;100594.63;;;12.10;100.00
8627;BME280;4351;51.422;6.794;2023-04-28T07:38:14;100554.66;;;12.15;100.00
8627;BME280;4351;51.422;6.794;2023-04-28T07:40:43;100516.84;;;12.26;100.00
8627;BME280;4351;51.422;6.794;2023-04-28T07:43:11;100489.28;;;12.34;100.00
8627;BME280;4351;51.422;6.794;2023-04-28T07:45:40;100456.88;;;12.59;100.00
8627;BME280;4351;51.422;6.794;2023-04-28T07:48:11;100425.66;;;12.41;100.00
8627;BME280;4351;51.422;6.794;2023-04-28T07:50:41;100387.88;;;12.64;100.00
8627;BME280;4351;51.422;6.794;2023-04-28T07:53:09;100353.78;;;12.50;100.00
8627;BME280;4351;51.422;6.794;2023-04-28T07:55:37;100324.09;;;12.49;100.00
8627;BME280;4351;51.422;6.794;2023-04-28T07:58:07;100279.72;;;12.51;100.00
8627;BME280;4351;51.422;6.794;2023-04-28T08:00:36;100254.78;;;12.59;100.00
8627;BME280;4351;51.422;6.794;2023-04-28T08:03:06;100236.19;;;12.43;100.00
8627;BME280;4351;51.422;6.794;2023-04-28T08:05:37;100233.69;;;12.40;100.00
8627;BME280;4351;51.422;6.794;2023-04-28T08:08:07;100228.22;;;12.53;100.00
8627;BME280;4351;51.422;6.794;2023-04-28T08:10:38;100225.88;;;12.60;100.00
8627;BME280;4351;51.422;6.794;2023-04-28T08:13:07;100221.69;;;12.56;100.00
8627;BME280;4351;51.422;6.794;2023-04-28T08:15:36;100206.25;;;12.81;100.00
8627;BME280;4351;51.422;6.794;2023-04-28T08:18:04;100183.84;;;12.90;100.00
8627;BME280;4351;51.422;6.794;2023-04-28T08:20:33;100172.78;;;12.82;100.00
8627;BME280;4351;51.422;6.794;2023-04-28T08:23:01;100157.28;;;12.95;100.00
8627;BME280;4351;51.422;6.794;2023-04-28T08:25:31;100182.88;;;12.91;100.00
8627;BME280;4351;51.422;6.794;2023-04-28T08:27:59;100185.59;;;13.03;100.00
8627;BME280;4351;51.422;6.794;2023-04-28T08:30:28;100188.91;;;12.95;100.00
8627;BME280;4351;51.422;6.794;2023-04-28T08:32:59;100176.97;;;12.86;100.00
8627;BME280;4351;51.422;6.794;2023-04-28T08:35:28;100172.94;;;12.92;100.00
8627;BME280;4351;51.422;6.794;2023-04-28T08:37:56;100184.09;;;13.10;100.00
8627;BME280;4351;51.422;6.794;2023-04-28T08:40:24;100181.28;;;13.23;100.00
8627;BME280;4351;51.422;6.794;2023-04-28T08:42:56;100184.84;;;13.12;100.00
8627;BME280;4351;51.422;6.794;2023-04-28T08:45:24;100179.94;;;13.29;100.00
8627;BME280;4351;51.422;6.794;2023-04-28T08:47:55;100196.31;;;13.16;100.00
8627;BME280;4351;51.422;6.794;2023-04-28T08:50:28;100197.41;;;13.25;100.00
8627;BME280;4351;51.422;6.794;2023-04-28T08:52:57;100194.22;;;13.31;100.00
8627;BME280;4351;51.422;6.794;2023-04-28T08:55:25;100210.94;;;13.48;100.00
8627;BME280;4351;51.422;6.794;2023-04-28T08:57:54;100226.19;;;13.14;100.00
8627;BME280;4351;51.422;6.794;2023-04-28T09:00:24;100233.09;;;13.30;100.00
8627;BME280;4351;51.422;6.794;2023-04-28T09:02:52;100231.63;;;13.37;100.00
8627;BME280;4351;51.422;6.794;2023-04-28T09:05:20;100233.47;;;13.37;100.00
8627;BME280;4351;51.422;6.794;2023-04-28T09:07:48;100244.94;;;13.29;100.00
8627;BME280;4351;51.422;6.794;2023-04-28T09:10:18;100249.25;;;13.31;100.00
8627;BME280;4351;51.422;6.794;2023-04-28T09:12:50;100254.53;;;13.44;100.00
8627;BME280;4351;51.422;6.794;2023-04-28T09:15:27;100272.50;;;13.34;100.00
8627;BME280;4351;51.422;6.794;2023-04-28T09:17:59;100270.28;;;13.28;100.00
8627;BME280;4351;51.422;6.794;2023-04-28T09:20:29;100297.34;;;13.05;100.00
8627;BME280;4351;51.422;6.794;2023-04-28T09:23:12;100329.38;;;13.11;100.00
8627;BME280;4351;51.422;6.794;2023-04-28T09:25:54;100351.81;;;13.25;100.00
8627;BME280;4351;51.422;6.794;2023-04-28T09:28:22;100374.88;;;13.06;100.00
8627;BME280;4351;51.422;6.794;2023-04-28T09:30:52;100386.88;;;13.26;100.00
8627;BME280;4351;51.422;6.794;2023-04-28T09:33:20;100413.66;;;13.42;100.00
8627;BME280;4351;51.422;6.794;2023-04-28T09:35:49;100421.50;;;13.34;100.00
8627;BME280;4351;51.422;6.794;2023-04-28T09:38:18;100430.66;;;13.44;100.00
8627;BME280;4351;51.422;6.794;2023-04-28T09:40:51;100430.66;;;13.44;100.00
8627;BME280;4351;51.422;6.794;2023-04-28T09:43:25;100412.22;;;13.61;100.00
8627;BME280;4351;51.422;6.794;2023-04-28T09:45:56;100390.78;;;13.70;100.00
8627;BME280;4351;51.422;6.794;2023-04-28T09:48:29;100386.25;;;13.82;100.00
8627;BME280;4351;51.422;6.794;2023-04-28T09:50:59;100374.53;;;13.93;100.00
8627;BME280;4351;51.422;6.794;2023-04-28T09:53:28;100351.09;;;14.03;100.00
8627;BME280;4351;51.422;6.794;2023-04-28T09:55:58;100339.66;;;13.99;100.00
8627;BME280;4351;51.422;6.794;2023-04-28T09:58:30;100324.22;;;14.00;100.00
8627;BME280;4351;51.422;6.794;2023-04-28T10:01:00;100303.75;;;14.07;100.00
8627;BME280;4351;51.422;6.794;2023-04-28T10:03:30;100296.84;;;14.14;100.00
8627;BME280;4351;51.422;6.794;2023-04-28T10:05:58;100310.56;;;13.90;100.00
8627;BME280;4351;51.422;6.794;2023-04-28T10:08:27;100314.66;;;13.84;100.00
8627;BME280;4351;51.422;6.794;2023-04-28T10:10:58;100316.22;;;13.98;100.00
8627;BME280;4351;51.422;6.794;2023-04-28T10:13:27;100317.38;;;13.84;100.00
8627;BME280;4351;51.422;6.794;2023-04-28T10:16:15;100327.22;;;13.85;100.00
8627;BME280;4351;51.422;6.794;2023-04-28T10:18:43;100329.56;;;13.78;100.00
8627;BME280;4351;51.422;6.794;2023-04-28T10:21:16;100337.81;;;13.65;100.00
8627;BME280;4351;51.422;6.794;2023-04-28T10:24:07;100346.91;;;13.76;100.00
8627;BME280;4351;51.422;6.794;2023-04-28T10:27:11;100357.28;;;13.71;100.00
8627;BME280;4351;51.422;6.794;2023-04-28T10:29:39;100369.13;;;13.81;100.00
8627;BME280;4351;51.422;6.794;2023-04-28T10:32:40;100384.38;;;13.82;100.00
8627;BME280;4351;51.422;6.794;2023-04-28T10:35:39;100388.72;;;13.73;100.00
8627;BME280;4351;51.422;6.794;2023-04-28T10:38:10;100399.44;;;13.86;100.00
8627;BME280;4351;51.422;6.794;2023-04-28T10:41:30;100407.28;;;13.78;100.00
8627;BME280;4351;51.422;6.794;2023-04-28T10:47:16;100404.84;;;13.75;100.00
8627;BME280;4351;51.422;6.794;2023-04-28T10:50:05;100398.44;;;13.87;100.00
8627;BME280;4351;51.422;6.794;2023-04-28T10:52:50;100407.69;;;13.96;100.00
8627;BME280;4351;51.422;6.794;2023-04-28T10:55:26;100402.88;;;14.00;100.00
8627;BME280;4351;51.422;6.794;2023-04-28T10:58:32;100400.16;;;14.11;100.00
8627;BME280;4351;51.422;6.794;2023-04-28T11:01:24;100409.16;;;14.00;100.00
8627;BME280;4351;51.422;6.794;2023-04-28T11:03:54;100413.75;;;13.88;100.00
8627;BME280;4351;51.422;6.794;2023-04-28T11:06:31;100436.63;;;13.96;100.00
8627;BME280;4351;51.422;6.794;2023-04-28T11:09:45;100444.78;;;13.96;100.00
8627;BME280;4351;51.422;6.794;2023-04-28T11:12:04;100464.50;;;13.98;100.00
8627;BME280;4351;51.422;6.794;2023-04-28T11:14:34;100500.47;;;13.77;100.00
8627;BME280;4351;51.422;6.794;2023-04-28T11:17:03;100518.44;;;13.78;100.00
8627;BME280;4351;51.422;6.794;2023-04-28T11:19:32;100552.94;;;13.76;100.00
8627;BME280;4351;51.422;6.794;2023-04-28T11:22:03;100566.19;;;13.92;100.00
8627;BME280;4351;51.422;6.794;2023-04-28T11:24:35;100575.66;;;13.86;100.00
8627;BME280;4351;51.422;6.794;2023-04-28T11:27:03;100575.09;;;14.06;100.00
8627;BME280;4351;51.422;6.794;2023-04-28T11:29:32;100583.63;;;14.12;100.00
8627;BME280;4351;51.422;6.794;2023-04-28T11:32:01;100581.66;;;14.14;100.00
8627;BME280;4351;51.422;6.794;2023-04-28T11:34:29;100590.91;;;14.35;100.00
8627;BME280;4351;51.422;6.794;2023-04-28T11:36:58;100598.69;;;14.28;100.00
8627;BME280;4351;51.422;6.794;2023-04-28T11:39:29;100600.63;;;14.26;100.00
8627;BME280;4351;51.422;6.794;2023-04-28T11:41:58;100617.00;;;14.13;100.00
8627;BME280;4351;51.422;6.794;2023-04-28T11:44:29;100643.50;;;14.09;100.00
8627;BME280;4351;51.422;6.794;2023-04-28T11:46:58;100654.75;;;14.16;100.00
8627;BME280;4351;51.422;6.794;2023-04-28T11:49:28;100678.03;;;14.07;100.00
8627;BME280;4351;51.422;6.794;2023-04-28T11:51:57;100734.84;;;14.09;100.00
8627;BME280;4351;51.422;6.794;2023-04-28T11:54:28;100793.72;;;14.20;100.00
8627;BME280;4351;51.422;6.794;2023-04-28T11:56:56;100847.34;;;14.16;100.00
8627;BME280;4351;51.422;6.794;2023-04-28T11:59:26;100921.91;;;14.23;100.00
8627;BME280;4351;51.422;6.794;2023-04-28T12:01:55;101003.63;;;14.19;100.00
8627;BME280;4351;51.422;6.794;2023-04-28T12:04:26;101007.41;;;14.16;100.00
8627;BME280;4351;51.422;6.794;2023-04-28T12:07:03;101060.78;;;14.16;100.00
8627;BME280;4351;51.422;6.794;2023-04-28T12:09:33;101131.00;;;14.20;100.00
8627;BME280;4351;51.422;6.794;2023-04-28T12:12:02;101200.38;;;14.37;100.00
8627;BME280;4351;51.422;6.794;2023-04-28T12:14:32;101314.06;;;14.42;100.00
8627;BME280;4351;51.422;6.794;2023-04-28T12:17:01;101400.81;;;14.44;100.00
8627;BME280;4351;51.422;6.794;2023-04-28T12:19:29;101488.59;;;14.57;100.00
8627;BME280;4351;51.422;6.794;2023-04-28T12:22:10;101618.63;;;14.62;100.00
8627;BME280;4351;51.422;6.794;2023-04-28T12:24:39;101707.69;;;14.71;100.00
8627;BME280;4351;51.422;6.794;2023-04-28T12:27:18;101878.19;;;14.81;100.00
8627;BME280;4351;51.422;6.794;2023-04-28T12:29:47;102062.31;;;14.92;100.00
8627;BME280;4351;51.422;6.794;2023-04-28T12:32:35;102185.38;;;14.94;100.00
8627;BME280;4351;51.422;6.794;2023-04-28T12:35:05;102261.06;;;15.18;100.00
8627;BME280;4351;51.422;6.794;2023-04-28T12:37:33;102262.34;;;15.27;100.00
8627;BME280;4351;51.422;6.794;2023-04-28T12:40:03;102280.94;;;15.67;100.00
8627;BME280;4351;51.422;6.794;2023-04-28T12:42:31;102234.59;;;15.85;100.00
8627;BME280;4351;51.422;6.794;2023-04-28T12:44:59;102176.97;;;15.93;100.00
8627;BME280;4351;51.422;6.794;2023-04-28T12:47:27;102100.94;;;16.06;100.00
8627;BME280;4351;51.422;6.794;2023-04-28T12:49:55;101952.34;;;16.31;100.00
8627;BME280;4351;51.422;6.794;2023-04-28T12:52:24;101762.38;;;16.22;100.00
8627;BME280;4351;51.422;6.794;2023-04-28T12:54:51;101572.94;;;16.32;100.00
8627;BME280;4351;51.422;6.794;2023-04-28T12:57:21;101378.84;;;16.18;100.00
8627;BME280;4351;51.422;6.794;2023-04-28T12:59:48;101208.69;;;16.13;100.00
8627;BME280;4351;51.422;6.794;2023-04-28T13:02:18;101061.63;;;16.03;100.00
8627;BME280;4351;51.422;6.794;2023-04-28T13:04:46;100914.06;;;15.99;100.00
8627;BME280;4351;51.422;6.794;2023-04-28T13:07:14;100796.09;;;15.89;100.00
8627;BME280;4351;51.422;6.794;2023-04-28T13:09:42;100715.31;;;16.01;100.00
8627;BME280;4351;51.422;6.794;2023-04-28T13:12:11;100639.69;;;15.94;100.00
8627;BME280;4351;51.422;6.794;2023-04-28T13:14:41;100603.44;;;15.94;100.00
8627;BME280;4351;51.422;6.794;2023-04-28T13:17:09;100531.59;;;16.18;100.00
8627;BME280;4351;51.422;6.794;2023-04-28T13:19:40;100458.13;;;16.18;100.00
8627;BME280;4351;51.422;6.794;2023-04-28T13:22:09;100401.00;;;16.28;100.00
8627;BME280;4351;51.422;6.794;2023-04-28T13:24:37;100350.78;;;16.42;100.00
8627;BME280;4351;51.422;6.794;2023-04-28T13:27:05;100266.09;;;16.55;100.00